createdAt,value
2018-11-11T00:00:23.064Z,5.70
2018-11-11T00:02:52.436Z,5.03
2018-11-11T00:05:20.836Z,3.37
2018-11-11T00:07:49.176Z,4.72
2018-11-11T00:10:17.548Z,4.37
2018-11-11T00:12:45.902Z,5.10
2018-11-11T00:15:16.284Z,3.87
2018-11-11T00:17:45.821Z,2.83
2018-11-11T00:20:14.367Z,4.00
2018-11-11T00:22:42.879Z,5.05
2018-11-11T00:25:11.260Z,4.22
2018-11-11T00:27:40.257Z,5.05
2018-11-11T00:30:12.292Z,4.45
2018-11-11T00:32:40.812Z,3.98
2018-11-11T00:35:09.501Z,2.95
2018-11-11T00:37:38.252Z,2.85
2018-11-11T00:40:06.740Z,3.10
2018-11-11T00:42:35.077Z,5.33
2018-11-11T00:45:03.497Z,3.62
2018-11-11T00:47:31.812Z,5.05
2018-11-11T00:50:00.184Z,3.50
2018-11-11T00:52:28.508Z,4.22
2018-11-11T00:54:56.863Z,3.33
2018-11-11T00:57:25.703Z,3.30
2018-11-11T00:59:54.064Z,3.50
2018-11-11T01:02:22.392Z,4.08
2018-11-11T01:04:50.755Z,3.22
2018-11-11T01:07:19.095Z,3.15
2018-11-11T01:09:47.453Z,2.40
2018-11-11T01:12:15.846Z,3.60
2018-11-11T01:14:44.148Z,2.52
2018-11-11T01:17:12.565Z,2.80
2018-11-11T01:19:40.884Z,2.83
2018-11-11T01:22:09.244Z,3.40
2018-11-11T01:24:37.643Z,4.53
2018-11-11T01:27:06.160Z,4.95
2018-11-11T01:29:34.580Z,4.17
2018-11-11T01:32:03.029Z,3.27
2018-11-11T01:34:31.425Z,3.62
2018-11-11T01:36:59.744Z,4.47
2018-11-11T01:39:28.102Z,5.17
2018-11-11T01:41:56.421Z,2.72
2018-11-11T01:44:24.788Z,3.02
2018-11-11T01:46:53.113Z,3.00
2018-11-11T01:49:21.484Z,4.30
2018-11-11T01:51:49.804Z,4.40
2018-11-11T01:54:18.169Z,6.17
2018-11-11T01:56:46.486Z,4.85
2018-11-11T01:59:14.873Z,4.92
2018-11-11T02:01:43.202Z,3.70
2018-11-11T02:04:11.569Z,4.90
2018-11-11T02:06:39.940Z,5.97
2018-11-11T02:09:09.251Z,4.30
2018-11-11T02:11:37.615Z,5.53
2018-11-11T02:14:06.028Z,4.30
2018-11-11T02:16:34.584Z,4.70
2018-11-11T02:19:02.965Z,5.47
2018-11-11T02:21:31.429Z,5.50
2018-11-11T02:23:59.828Z,4.03
2018-11-11T02:26:28.204Z,5.83
2018-11-11T02:28:56.569Z,4.15
2018-11-11T02:31:24.892Z,5.10
2018-11-11T02:33:53.265Z,5.03
2018-11-11T02:36:21.677Z,5.25
2018-11-11T02:38:50.047Z,7.95
2018-11-11T02:41:18.389Z,4.60
2018-11-11T02:43:46.783Z,4.08
2018-11-11T02:46:15.281Z,5.15
2018-11-11T02:48:43.656Z,4.78
2018-11-11T02:51:12.009Z,5.90
2018-11-11T02:53:40.351Z,7.10
2018-11-11T02:56:08.885Z,4.40
2018-11-11T02:58:37.228Z,5.53
2018-11-11T03:01:05.652Z,6.83
2018-11-11T03:03:34.017Z,6.58
2018-11-11T03:06:02.357Z,5.45
2018-11-11T03:08:30.704Z,5.95
2018-11-11T03:10:59.069Z,5.15
2018-11-11T03:13:27.437Z,5.05
2018-11-11T03:15:55.814Z,5.30
2018-11-11T03:18:24.156Z,5.45
2018-11-11T03:20:52.613Z,5.47
2018-11-11T03:23:20.948Z,4.87
2018-11-11T03:25:49.300Z,4.62
2018-11-11T03:28:17.651Z,4.55
2018-11-11T03:30:46.009Z,6.05
2018-11-11T03:33:14.369Z,4.92
2018-11-11T03:35:42.741Z,3.92
2018-11-11T03:38:11.060Z,5.42
2018-11-11T03:40:39.395Z,5.22
2018-11-11T03:43:07.764Z,5.15
2018-11-11T03:45:36.098Z,5.85
2018-11-11T03:48:04.545Z,3.50
2018-11-11T03:50:32.875Z,4.78
2018-11-11T03:53:01.241Z,5.00
2018-11-11T03:55:29.572Z,4.28
2018-11-11T03:57:57.935Z,6.03
2018-11-11T04:00:26.276Z,6.72
2018-11-11T04:02:54.644Z,5.40
2018-11-11T04:05:22.993Z,6.10
2018-11-11T04:07:51.344Z,7.40
2018-11-11T04:10:20.028Z,6.28
2018-11-11T04:12:48.963Z,3.35
2018-11-11T04:15:18.564Z,6.97
2018-11-11T04:17:47.269Z,4.87
2018-11-11T04:20:16.971Z,5.80
2018-11-11T04:22:45.340Z,6.53
2018-11-11T04:25:14.309Z,4.22
2018-11-11T04:27:42.679Z,5.22
2018-11-11T04:30:12.016Z,5.92
2018-11-11T04:32:40.650Z,6.87
2018-11-11T04:35:09.048Z,7.72
2018-11-11T04:37:37.432Z,6.30
2018-11-11T04:40:07.521Z,4.12
2018-11-11T04:42:35.962Z,6.37
2018-11-11T04:45:04.580Z,4.15
2018-11-11T04:47:32.945Z,5.50
2018-11-11T04:50:02.573Z,4.42
2018-11-11T04:52:30.908Z,6.83
2018-11-11T04:54:59.281Z,4.28
2018-11-11T04:57:27.616Z,4.62
2018-11-11T04:59:55.960Z,5.30
2018-11-11T05:02:24.349Z,6.78
2018-11-11T05:04:52.681Z,3.52
2018-11-11T05:07:21.064Z,3.65
2018-11-11T05:09:49.392Z,6.45
2018-11-11T05:12:17.724Z,5.37
2018-11-11T05:14:46.088Z,6.37
2018-11-11T05:17:14.448Z,4.05
2018-11-11T05:19:42.810Z,4.17
2018-11-11T05:22:11.144Z,5.35
2018-11-11T05:24:39.541Z,5.97
2018-11-11T05:27:07.912Z,5.12
2018-11-11T05:29:36.272Z,6.03
2018-11-11T05:32:04.922Z,6.78
2018-11-11T05:34:33.282Z,3.52
2018-11-11T05:37:01.652Z,5.92
2018-11-11T05:39:29.972Z,5.45
2018-11-11T05:41:58.328Z,5.00
2018-11-11T05:44:26.709Z,6.05
2018-11-11T05:46:55.109Z,3.70
2018-11-11T05:49:23.464Z,3.05
2018-11-11T05:51:51.795Z,3.90
2018-11-11T05:54:20.149Z,6.55
2018-11-11T05:56:48.468Z,4.12
2018-11-11T05:59:16.825Z,3.62
2018-11-11T06:01:45.160Z,4.20
2018-11-11T06:04:13.525Z,4.80
2018-11-11T06:06:41.845Z,3.50
2018-11-11T06:09:10.939Z,5.17
2018-11-11T06:11:39.900Z,6.35
2018-11-11T06:14:08.533Z,4.87
2018-11-11T06:16:36.942Z,4.22
2018-11-11T06:19:05.790Z,4.80
2018-11-11T06:21:34.164Z,5.85
2018-11-11T06:24:02.548Z,4.20
2018-11-11T06:26:30.909Z,4.00
2018-11-11T06:28:59.284Z,4.28
2018-11-11T06:31:27.657Z,4.00
2018-11-11T06:33:56.098Z,3.58
2018-11-11T06:36:24.421Z,3.10
2018-11-11T06:38:52.754Z,2.65
2018-11-11T06:41:21.117Z,2.65
2018-11-11T06:43:49.760Z,3.20
2018-11-11T06:46:18.112Z,2.20
2018-11-11T06:48:46.460Z,3.30
2018-11-11T06:51:15.725Z,3.80
2018-11-11T06:53:44.071Z,2.58
2018-11-11T06:56:12.408Z,3.27
2018-11-11T06:58:40.771Z,3.40
2018-11-11T07:01:09.180Z,2.85
2018-11-11T07:04:00.368Z,3.20
2018-11-11T07:06:29.177Z,2.30
2018-11-11T07:08:57.494Z,2.95
2018-11-11T07:11:25.840Z,1.60
2018-11-11T07:13:54.279Z,2.58
2018-11-11T07:16:22.685Z,2.75
2018-11-11T07:18:51.013Z,2.42
2018-11-11T07:21:19.417Z,2.42
2018-11-11T07:23:47.918Z,3.12
2018-11-11T07:26:16.238Z,1.92
2018-11-11T07:28:44.565Z,3.02
2018-11-11T07:31:12.904Z,1.95
2018-11-11T07:33:41.249Z,2.05
2018-11-11T07:36:10.469Z,4.87
2018-11-11T07:38:39.001Z,3.05
2018-11-11T07:41:07.725Z,2.83
2018-11-11T07:43:36.477Z,2.90
2018-11-11T07:46:04.908Z,3.08
2018-11-11T07:48:33.316Z,3.15
2018-11-11T07:51:01.845Z,2.08
2018-11-11T07:53:30.274Z,3.35
2018-11-11T07:55:58.714Z,3.35
2018-11-11T07:58:27.056Z,2.85
2018-11-11T08:00:55.416Z,2.33
2018-11-11T08:03:23.740Z,4.10
2018-11-11T08:05:52.101Z,3.67
2018-11-11T08:08:20.684Z,4.42
2018-11-11T08:11:00.321Z,3.35
2018-11-11T08:13:28.663Z,3.22
2018-11-11T08:15:57.025Z,3.27
2018-11-11T08:18:25.392Z,4.00
2018-11-11T08:20:53.757Z,2.47
2018-11-11T08:23:22.229Z,3.80
2018-11-11T08:25:50.633Z,4.45
2018-11-11T08:28:19.004Z,3.00
2018-11-11T08:30:47.373Z,3.77
2018-11-11T08:33:15.784Z,1.90
2018-11-11T08:35:44.116Z,4.10
2018-11-11T08:38:12.446Z,2.17
2018-11-11T08:40:40.869Z,2.90
2018-11-11T08:43:09.173Z,5.05
2018-11-11T08:45:37.516Z,3.22
2018-11-11T08:48:05.938Z,3.35
2018-11-11T08:50:34.304Z,2.47
2018-11-11T08:53:02.624Z,3.70
2018-11-11T08:55:30.996Z,3.42
2018-11-11T08:57:59.393Z,2.77
2018-11-11T09:00:27.764Z,3.37
2018-11-11T09:02:56.117Z,3.58
2018-11-11T09:05:24.501Z,2.67
2018-11-11T09:07:52.835Z,2.08
2018-11-11T09:10:21.250Z,3.50
2018-11-11T09:12:49.572Z,3.75
2018-11-11T09:15:17.936Z,2.98
2018-11-11T09:17:46.261Z,1.65
2018-11-11T09:20:15.716Z,1.30
2018-11-11T09:22:44.069Z,1.40
2018-11-11T09:25:12.548Z,23.57
2018-11-11T09:27:42.084Z,1.67
2018-11-11T09:30:12.498Z,2.72
2018-11-11T09:32:41.121Z,2.30
2018-11-11T09:35:09.833Z,2.60
2018-11-11T09:37:38.453Z,1.70
2018-11-11T09:40:07.828Z,1.12
2018-11-11T09:42:36.237Z,1.10
2018-11-11T09:45:06.021Z,1.47
2018-11-11T09:47:34.375Z,1.02
2018-11-11T09:50:02.736Z,2.67
2018-11-11T09:52:31.115Z,2.58
2018-11-11T09:54:59.491Z,1.50
2018-11-11T09:57:27.909Z,1.22
2018-11-11T09:59:56.277Z,1.10
2018-11-11T10:02:24.639Z,0.90
2018-11-11T10:04:57.375Z,0.90
2018-11-11T10:07:37.244Z,1.00
2018-11-11T10:11:09.640Z,0.82
2018-11-11T10:13:53.568Z,0.70
2018-11-11T10:17:25.636Z,1.35
2018-11-11T10:19:59.285Z,0.95
2018-11-11T10:22:33.117Z,0.68
2018-11-11T10:25:22.777Z,0.70
2018-11-11T10:28:11.392Z,0.55
2018-11-11T10:31:01.119Z,0.60
2018-11-11T10:33:36.437Z,0.70
2018-11-11T10:36:10.341Z,0.68
2018-11-11T10:38:48.688Z,1.37
2018-11-11T10:41:23.299Z,0.80
2018-11-11T10:43:56.414Z,1.05
2018-11-11T10:46:32.773Z,0.60
2018-11-11T10:49:06.693Z,0.80
2018-11-11T10:51:35.473Z,0.90
2018-11-11T10:54:03.959Z,0.75
2018-11-11T10:56:32.300Z,0.80
2018-11-11T10:59:00.652Z,0.78
2018-11-11T11:01:36.103Z,0.72
2018-11-11T11:04:04.604Z,0.60
2018-11-11T11:06:38.285Z,0.90
2018-11-11T11:09:12.496Z,1.15
2018-11-11T11:11:41.841Z,0.93
2018-11-11T11:14:10.496Z,0.60
2018-11-11T11:16:39.105Z,0.50
2018-11-11T11:19:07.592Z,2.45
2018-11-11T11:21:35.932Z,1.10
2018-11-11T11:24:04.337Z,0.50
2018-11-11T11:26:32.702Z,0.50
2018-11-11T11:29:01.073Z,0.78
2018-11-11T11:31:29.450Z,0.68
2018-11-11T11:33:57.859Z,0.57
2018-11-11T11:36:26.527Z,0.70
2018-11-11T11:38:54.905Z,0.75
2018-11-11T11:41:23.308Z,0.70
2018-11-11T11:43:51.697Z,1.00
2018-11-11T11:46:20.012Z,0.60
2018-11-11T11:48:48.368Z,0.78
2018-11-11T11:51:23.332Z,0.57
2018-11-11T11:53:51.708Z,1.02
2018-11-11T11:56:20.045Z,0.50
2018-11-11T11:58:48.418Z,0.50
2018-11-11T12:01:16.740Z,0.57
2018-11-11T12:03:45.076Z,0.62
2018-11-11T12:06:13.439Z,1.15
2018-11-11T12:08:41.855Z,0.47
2018-11-11T12:11:10.173Z,0.50
2018-11-11T12:13:38.509Z,0.78
2018-11-11T12:16:06.897Z,0.47
2018-11-11T12:18:35.245Z,0.40
2018-11-11T12:21:03.585Z,1.77
2018-11-11T12:23:31.976Z,0.50
2018-11-11T12:26:00.317Z,0.50
2018-11-11T12:28:28.706Z,0.50
2018-11-11T12:30:57.154Z,1.12
2018-11-11T12:33:25.437Z,0.60
2018-11-11T12:35:53.780Z,0.90
2018-11-11T12:38:22.212Z,0.60
2018-11-11T12:40:50.560Z,0.60
2018-11-11T12:43:18.950Z,1.05
2018-11-11T12:45:47.281Z,0.40
2018-11-11T12:48:15.657Z,0.50
2018-11-11T12:50:44.069Z,0.45
2018-11-11T12:53:12.507Z,0.45
2018-11-11T12:55:40.878Z,0.70
2018-11-11T12:58:09.303Z,0.62
2018-11-11T13:00:37.809Z,0.55
2018-11-11T13:03:06.302Z,0.65
2018-11-11T13:05:34.697Z,0.50
2018-11-11T13:08:03.140Z,0.60
2018-11-11T13:10:31.429Z,0.50
2018-11-11T13:12:59.790Z,0.55
2018-11-11T13:15:28.136Z,0.50
2018-11-11T13:17:56.614Z,0.40
2018-11-11T13:20:25.014Z,0.93
2018-11-11T13:22:53.817Z,0.40
2018-11-11T13:25:22.021Z,1.07
2018-11-11T13:27:50.423Z,1.00
2018-11-11T13:30:18.804Z,0.57
2018-11-11T13:32:47.251Z,0.95
2018-11-11T13:35:16.296Z,0.70
2018-11-11T13:37:44.755Z,0.60
2018-11-11T13:40:15.674Z,0.40
2018-11-11T13:42:44.292Z,0.65
2018-11-11T13:45:14.943Z,0.60
2018-11-11T13:47:44.398Z,1.30
2018-11-11T13:50:15.172Z,0.72
2018-11-11T13:52:44.244Z,0.70
2018-11-11T13:55:13.207Z,0.60
2018-11-11T13:57:42.332Z,0.70
2018-11-11T14:00:19.501Z,1.27
2018-11-11T14:02:47.963Z,2.10
2018-11-11T14:05:16.432Z,1.22
2018-11-11T14:07:44.827Z,0.70
2018-11-11T14:10:13.736Z,0.80
2018-11-11T14:12:42.232Z,0.57
2018-11-11T14:15:15.021Z,1.20
2018-11-11T14:17:44.305Z,0.82
2018-11-11T14:20:13.973Z,0.50
2018-11-11T14:22:43.604Z,0.70
2018-11-11T14:25:15.633Z,0.93
2018-11-11T14:27:44.581Z,0.80
2018-11-11T14:30:16.040Z,1.10
2018-11-11T14:32:44.905Z,1.30
2018-11-11T14:35:13.761Z,0.50
2018-11-11T14:37:42.505Z,0.60
2018-11-11T14:40:14.305Z,0.50
2018-11-11T14:42:42.693Z,0.50
2018-11-11T14:45:12.912Z,0.85
2018-11-11T14:47:41.879Z,1.40
2018-11-11T14:50:11.966Z,1.20
2018-11-11T14:52:40.656Z,0.68
2018-11-11T14:55:14.119Z,0.53
2018-11-11T14:57:42.495Z,0.60
2018-11-11T15:00:14.094Z,0.47
2018-11-11T15:02:42.572Z,0.85
2018-11-11T15:05:13.574Z,0.90
2018-11-11T15:07:42.623Z,0.93
2018-11-11T15:10:12.468Z,1.07
2018-11-11T15:12:41.020Z,0.85
2018-11-11T15:15:13.009Z,0.53
2018-11-11T15:17:41.460Z,0.50
2018-11-11T15:20:10.990Z,0.80
2018-11-11T15:22:39.182Z,1.17
2018-11-11T15:25:10.308Z,0.62
2018-11-11T15:27:39.111Z,1.20
2018-11-11T15:30:10.649Z,0.50
2018-11-11T15:32:39.009Z,0.70
2018-11-11T15:35:07.845Z,2.10
2018-11-11T15:37:36.501Z,0.60
2018-11-11T15:40:08.093Z,0.93
2018-11-11T15:42:36.482Z,0.70
2018-11-11T15:45:06.593Z,1.15
2018-11-11T15:47:34.938Z,0.82
2018-11-11T15:50:03.725Z,0.65
2018-11-11T15:52:32.058Z,0.78
2018-11-11T15:55:00.668Z,0.70
2018-11-11T15:57:29.010Z,0.60
2018-11-11T15:59:57.696Z,0.60
2018-11-11T16:02:26.026Z,0.70
2018-11-11T16:04:55.581Z,0.95
2018-11-11T16:07:23.917Z,1.00
2018-11-11T16:09:52.539Z,1.22
2018-11-11T16:12:20.893Z,1.15
2018-11-11T16:14:49.420Z,1.05
2018-11-11T16:17:17.753Z,0.78
2018-11-11T16:19:46.558Z,1.20
2018-11-11T16:22:14.812Z,1.00
2018-11-11T16:24:43.548Z,1.42
2018-11-11T16:27:11.877Z,1.27
2018-11-11T16:29:40.373Z,1.02
2018-11-11T16:32:08.732Z,1.05
2018-11-11T16:34:37.337Z,1.32
2018-11-11T16:37:05.769Z,1.12
2018-11-11T16:39:34.571Z,1.85
2018-11-11T16:42:03.310Z,1.52
2018-11-11T16:44:31.656Z,1.67
2018-11-11T16:47:00.301Z,1.65
2018-11-11T16:49:28.648Z,2.15
2018-11-11T16:51:57.256Z,2.50
2018-11-11T16:54:25.630Z,1.82
2018-11-11T16:56:54.632Z,2.30
2018-11-11T16:59:22.982Z,3.85
2018-11-11T17:01:51.593Z,3.10
2018-11-11T17:04:20.025Z,3.08
2018-11-11T17:06:48.467Z,4.75
2018-11-11T17:09:16.814Z,2.98
2018-11-11T17:11:45.517Z,3.85
2018-11-11T17:14:13.891Z,7.25
2018-11-11T17:16:42.308Z,3.62
2018-11-11T17:19:10.677Z,4.22
2018-11-11T17:21:39.550Z,4.37
2018-11-11T17:24:07.724Z,6.28
2018-11-11T17:26:36.216Z,4.67
2018-11-11T17:29:04.668Z,3.50
2018-11-11T17:31:33.279Z,4.22
2018-11-11T17:34:01.617Z,5.08
2018-11-11T17:36:30.352Z,3.47
2018-11-11T17:38:58.768Z,2.10
2018-11-11T17:41:27.434Z,2.35
2018-11-11T17:43:55.769Z,2.08
2018-11-11T17:46:24.204Z,2.22
2018-11-11T17:48:52.537Z,2.58
2018-11-11T17:51:21.241Z,3.65
2018-11-11T17:53:49.577Z,1.65
2018-11-11T17:56:18.193Z,1.22
2018-11-11T17:58:46.520Z,1.40
2018-11-11T18:01:15.069Z,2.58
2018-11-11T18:03:43.480Z,1.30
2018-11-11T18:06:13.186Z,1.87
2018-11-11T18:08:41.517Z,1.40
2018-11-11T18:11:09.939Z,1.20
2018-11-11T18:13:38.413Z,1.30
2018-11-11T18:16:06.745Z,1.47
2018-11-11T18:18:35.136Z,3.10
2018-11-11T18:21:03.496Z,1.32
2018-11-11T18:23:31.886Z,1.80
2018-11-11T18:26:00.237Z,1.57
2018-11-11T18:28:28.664Z,2.42
2018-11-11T18:30:56.975Z,1.50
2018-11-11T18:33:25.639Z,2.90
2018-11-11T18:35:54.005Z,2.27
2018-11-11T18:38:22.621Z,2.35
2018-11-11T18:40:50.953Z,2.90
2018-11-11T18:43:19.574Z,2.08
2018-11-11T18:45:47.941Z,2.52
2018-11-11T18:48:16.537Z,2.20
2018-11-11T18:50:44.876Z,1.87
2018-11-11T18:53:13.600Z,2.15
2018-11-11T18:55:41.944Z,1.65
2018-11-11T18:58:10.505Z,1.55
2018-11-11T19:00:38.828Z,3.00
2018-11-11T19:03:07.469Z,2.33
2018-11-11T19:05:35.844Z,2.45
2018-11-11T19:08:04.609Z,2.55
2018-11-11T19:10:33.766Z,2.33
2018-11-11T19:13:05.854Z,2.85
2018-11-11T19:15:34.149Z,1.70
2018-11-11T19:18:02.801Z,2.10
2018-11-11T19:20:31.164Z,2.00
2018-11-11T19:22:59.804Z,3.00
2018-11-11T19:25:29.152Z,1.75
2018-11-11T19:27:58.396Z,1.57
2018-11-11T19:30:27.523Z,2.45
2018-11-11T19:32:57.020Z,1.60
2018-11-11T19:35:25.698Z,2.98
2018-11-11T19:37:55.935Z,2.17
2018-11-11T19:40:26.609Z,1.85
2018-11-11T19:42:56.284Z,2.33
2018-11-11T19:45:25.925Z,1.95
2018-11-11T19:47:54.309Z,1.70
2018-11-11T19:50:23.812Z,3.17
2018-11-11T19:52:53.154Z,2.45
2018-11-11T19:55:22.005Z,2.77
2018-11-11T19:57:50.414Z,3.83
2018-11-11T20:00:23.142Z,3.70
2018-11-11T20:02:52.265Z,3.00
2018-11-11T20:05:21.626Z,4.45
2018-11-11T20:07:51.073Z,3.05
2018-11-11T20:10:20.101Z,3.10
2018-11-11T20:12:49.323Z,2.65
2018-11-11T20:15:19.276Z,2.52
2018-11-11T20:17:48.079Z,2.15
2018-11-11T20:20:17.963Z,2.83
2018-11-11T20:22:46.402Z,2.00
2018-11-11T20:25:16.607Z,2.60
2018-11-11T20:27:45.288Z,2.25
2018-11-11T20:30:18.045Z,2.22
2018-11-11T20:32:46.424Z,1.70
2018-11-11T20:35:16.253Z,2.15
2018-11-11T20:37:44.536Z,2.00
2018-11-11T20:40:14.088Z,2.50
2018-11-11T20:42:43.027Z,2.17
2018-11-11T20:45:12.476Z,1.55
2018-11-11T20:47:41.645Z,1.65
2018-11-11T20:50:12.506Z,1.60
2018-11-11T20:52:41.782Z,1.60
2018-11-11T20:55:10.721Z,3.33
2018-11-11T20:57:39.672Z,1.57
2018-11-11T21:00:10.336Z,1.92
2018-11-11T21:02:38.742Z,4.47
2018-11-11T21:05:08.288Z,1.57
2018-11-11T21:07:36.646Z,1.50
2018-11-11T21:10:06.544Z,1.50
2018-11-11T21:12:34.892Z,1.60
2018-11-11T21:15:03.301Z,4.20
2018-11-11T21:17:31.640Z,1.72
2018-11-11T21:20:00.009Z,2.22
2018-11-11T21:22:28.364Z,1.10
2018-11-11T21:24:56.738Z,2.40
2018-11-11T21:27:25.083Z,2.12
2018-11-11T21:29:53.448Z,1.30
2018-11-11T21:32:21.911Z,2.35
2018-11-11T21:34:50.288Z,1.00
2018-11-11T21:37:18.640Z,2.08
2018-11-11T21:39:47.057Z,1.52
2018-11-11T21:42:15.401Z,1.57
2018-11-11T21:44:43.839Z,1.92
2018-11-11T21:47:12.197Z,1.82
2018-11-11T21:49:40.573Z,1.32
2018-11-11T21:52:08.916Z,1.40
2018-11-11T21:54:37.292Z,1.22
2018-11-11T21:57:06.068Z,1.35
2018-11-11T21:59:34.449Z,1.80
2018-11-11T22:02:02.829Z,1.32
2018-11-11T22:04:31.236Z,1.72
2018-11-11T22:06:59.634Z,1.27
2018-11-11T22:09:28.040Z,1.12
2018-11-11T22:11:56.429Z,1.65
2018-11-11T22:14:24.795Z,1.42
2018-11-11T22:16:53.368Z,2.62
2018-11-11T22:19:21.555Z,1.75
2018-11-11T22:21:49.921Z,1.57
2018-11-11T22:24:18.292Z,1.40
2018-11-11T22:26:46.669Z,1.32
2018-11-11T22:29:15.355Z,1.90
2018-11-11T22:31:43.722Z,2.80
2018-11-11T22:34:12.091Z,2.30
2018-11-11T22:36:40.528Z,0.98
2018-11-11T22:39:10.104Z,1.82
2018-11-11T22:41:38.595Z,2.00
2018-11-11T22:44:07.584Z,1.50
2018-11-11T22:46:36.000Z,2.35
2018-11-11T22:49:04.716Z,2.42
2018-11-11T22:51:33.161Z,2.77
2018-11-11T22:54:01.542Z,1.65
2018-11-11T22:56:29.965Z,1.45
2018-11-11T22:58:58.333Z,1.30
2018-11-11T23:01:26.728Z,1.45
2018-11-11T23:03:55.072Z,0.85
2018-11-11T23:06:23.448Z,1.12
2018-11-11T23:08:51.802Z,1.52
2018-11-11T23:11:20.172Z,2.08
2018-11-11T23:13:48.528Z,1.12
2018-11-11T23:16:16.929Z,1.85
2018-11-11T23:18:45.273Z,1.15
2018-11-11T23:21:13.641Z,1.57
2018-11-11T23:23:42.004Z,1.27
2018-11-11T23:26:10.383Z,0.90
2018-11-11T23:28:38.735Z,1.05
2018-11-11T23:31:07.112Z,1.40
2018-11-11T23:33:35.461Z,0.80
2018-11-11T23:36:03.905Z,1.00
2018-11-11T23:38:32.239Z,2.05
2018-11-11T23:41:00.632Z,1.02
2018-11-11T23:43:28.977Z,0.85
2018-11-11T23:45:57.356Z,1.45
2018-11-11T23:48:25.705Z,1.05
2018-11-11T23:50:54.081Z,1.00
2018-11-11T23:53:22.457Z,1.52
2018-11-11T23:55:50.807Z,1.32
2018-11-11T23:58:19.165Z,2.25
